Terminal Aerodrome Forecast
Issued by NWS Raleigh/Durham, NC

Home | Current Version | Previous Version | Text Only | Print | Product List | Glossary On
Versions: 1 2 3 4 5 6 7 8 9 10 11 12 13 14 15 16 17 18 19 20 21 22 23 24 25 26 27 28 29 30 31 32 33 34 35 36 37 38 39 40 41 42 43 44 45 46 47 48 49 50
000
FTUS42 KRAH 170345 AAA
TAFFAY
TAF AMD
KFAY 170345Z 1704/1724 VRB04KT P6SM FEW050 BKN250
      TEMPO 1704/1706 3SM -SHRA BKN035
     FM170800 VRB02KT 4SM BR SCT010
      TEMPO 1708/1712 1SM BR SCT002
     FM171300 14004KT P6SM SCT010
      TEMPO 1713/1716 BKN015
     FM171700 18007KT P6SM SCT040 PROB30 1718/1724 VRB15G25KT 2SM
      TSRA BKN025CB=

USA.gov is the U.S. government's official web portal to all federal, state and local government web resources and services.